Altagrace — J8QI4 — position and weather

sailwx.info

Track history (hours):
 
Tides and Currents Weather Stations Pressure Air Temp Water Temp Dewpoint Dewpoint Depression Visibility Wind Speed Wind Dir Waves Ship Positions

Altagrace

Last reported at 2017-Oct-08 01:39 UTC. Time now 2017-Oct-19 13:15 UTC.
Position N 25°24' W 079°55'.
Warning: this ship's position is 11 days out of date.

Length 82 m; draft 4.6 m.

Type: Cargo ship. MMSI: 377901040.

Date/timePositionNaut miles runAvg speedWind from/ knotsBaromVisibWave heightAir tempDewpointWater temp
2017-Oct-08 01:39N 25°24' W 079°55'1 8.5
2017-Oct-08 01:30N 25°26' W 079°55'4 8.1
2017-Oct-08 01:00N 25°30' W 079°56'4 8.9
2017-Oct-08 00:30N 25°34' W 079°58'5 9.2
2017-Oct-08 00:00N 25°38' W 080°00'4 8.9
2017-Oct-07 23:30N 25°42' W 080°03'4 8.7
2017-Oct-07 23:00N 25°45' W 080°05'4 7.7
2017-Oct-07 22:30N 25°46' W 080°10'2 3.2
2017-Oct-07 22:00N 25°46' W 080°11'1 2.9
2017-Oct-07 21:30N 25°47' W 080°13'2 3.2
2017-Oct-07 21:00N 25°48' W 080°14'0 0.8
2017-Oct-07 20:28N 25°48' W 080°15'0 0.0
2017-Oct-07 19:58N 25°48' W 080°15'0 0.0
2017-Oct-07 19:28N 25°48' W 080°15'0 0.0
2017-Oct-07 18:58N 25°48' W 080°15'0 0.0
2017-Oct-07 18:28N 25°48' W 080°15'0 0.0
2017-Oct-07 17:58N 25°48' W 080°15'0 0.0
2017-Oct-07 17:28N 25°48' W 080°15'0 0.0
2017-Oct-07 16:58N 25°48' W 080°15'0 0.0
2017-Oct-07 16:28N 25°48' W 080°15'0 0.0
2017-Oct-07 15:58N 25°48' W 080°15'0 0.0
2017-Oct-07 15:28N 25°48' W 080°15'0 0.0
2017-Oct-07 14:58N 25°48' W 080°15'0 0.0
2017-Oct-07 14:28N 25°48' W 080°15'0 0.0
2017-Oct-07 13:58N 25°48' W 080°15'0 0.0
2017-Oct-07 13:28N 25°48' W 080°15'0 0.0
2017-Oct-07 12:58N 25°48' W 080°15'0 0.0
2017-Oct-07 12:28N 25°48' W 080°15'0 0.0
2017-Oct-07 11:55N 25°48' W 080°15'0 0.0
2017-Oct-07 11:22N 25°48' W 080°15'0 0.0
2017-Oct-07 10:58N 25°48' W 080°15'0 0.0
2017-Oct-07 10:28N 25°48' W 080°15'0 0.0
2017-Oct-07 09:52N 25°48' W 080°15'0 0.0
2017-Oct-07 09:28N 25°48' W 080°15'0 0.0
2017-Oct-07 08:58N 25°48' W 080°15'0 0.0
2017-Oct-07 08:28N 25°48' W 080°15'0 0.0
2017-Oct-07 07:58N 25°48' W 080°15'0 0.0
2017-Oct-07 07:28N 25°48' W 080°15'0 0.0
2017-Oct-07 06:55N 25°48' W 080°15'0 0.0
2017-Oct-07 06:25N 25°48' W 080°15'0 0.0
2017-Oct-07 05:55N 25°48' W 080°15'0 0.0
2017-Oct-07 05:25N 25°48' W 080°15'0 0.0
2017-Oct-07 04:58N 25°48' W 080°15'0 0.0
2017-Oct-07 04:28N 25°48' W 080°15'0 0.0
2017-Oct-07 03:58N 25°48' W 080°15'0 0.0
2017-Oct-07 03:28N 25°48' W 080°15'0 0.0
2017-Oct-07 02:58N 25°48' W 080°15'0 0.0
2017-Oct-07 02:28N 25°48' W 080°15'0 0.0
2017-Oct-07 01:58N 25°48' W 080°15'0 0.0
2017-Oct-07 01:28N 25°48' W 080°15'0 0.0
2017-Oct-07 00:58N 25°48' W 080°15'0 0.0
2017-Oct-07 00:28N 25°48' W 080°15'0 0.0
2017-Oct-06 23:58N 25°48' W 080°15'0 0.0
2017-Oct-06 23:28N 25°48' W 080°15'0 0.0
2017-Oct-06 22:58N 25°48' W 080°15'0 0.0
2017-Oct-06 22:28N 25°48' W 080°15'0 0.0
2017-Oct-06 21:58N 25°48' W 080°15'0 0.0
2017-Oct-06 21:25N 25°48' W 080°15'0 0.0
2017-Oct-06 20:58N 25°48' W 080°15'0 0.0
2017-Oct-06 20:22N 25°48' W 080°15'0 0.0
2017-Oct-06 19:58N 25°48' W 080°15'0 0.0
2017-Oct-06 19:28N 25°48' W 080°15'0 0.0
2017-Oct-06 18:49N 25°48' W 080°15'0 0.0
2017-Oct-06 18:28N 25°48' W 080°15'0 0.0
2017-Oct-06 17:58N 25°48' W 080°15'0 0.0
2017-Oct-06 17:28N 25°48' W 080°15'0 0.0
2017-Oct-06 16:55N 25°48' W 080°15'0 0.0
2017-Oct-06 16:25N 25°48' W 080°15'0 0.0
2017-Oct-06 15:58N 25°48' W 080°15'0 0.0
2017-Oct-06 15:28N 25°48' W 080°15'0 0.0
2017-Oct-06 14:55N 25°48' W 080°15'0 0.0
2017-Oct-06 14:28N 25°48' W 080°15'0 0.0
2017-Oct-06 13:58N 25°48' W 080°15'0 0.0
2017-Oct-06 13:28N 25°48' W 080°15'0 0.0
2017-Oct-06 12:58N 25°48' W 080°15'0 0.0
2017-Oct-06 12:28N 25°48' W 080°15'0 0.0
2017-Oct-06 11:58N 25°48' W 080°15'0 0.0
2017-Oct-06 11:28N 25°48' W 080°15'0 0.0
2017-Oct-06 10:58N 25°48' W 080°15'0 0.0
2017-Oct-06 10:28N 25°48' W 080°15'0 0.0
2017-Oct-06 09:58N 25°48' W 080°15'0 0.0
2017-Oct-06 09:28N 25°48' W 080°15'0 0.0
2017-Oct-06 08:58N 25°48' W 080°15'0 0.0
2017-Oct-06 08:28N 25°48' W 080°15'0 0.0
2017-Oct-06 07:58N 25°48' W 080°15'0 0.0
2017-Oct-06 07:28N 25°48' W 080°15'0 0.0
2017-Oct-06 06:49N 25°48' W 080°15'0 0.0
2017-Oct-06 06:28N 25°48' W 080°15'0 0.0
2017-Oct-06 05:58N 25°48' W 080°15'0 0.0
2017-Oct-06 05:28N 25°48' W 080°15'0 0.0
2017-Oct-06 04:55N 25°48' W 080°15'0 0.0
2017-Oct-06 04:28N 25°48' W 080°15'0 0.0
2017-Oct-06 03:58N 25°48' W 080°15'0 0.0
2017-Oct-06 03:28N 25°48' W 080°15'0 0.0
2017-Oct-06 02:58N 25°48' W 080°15'0 0.0
2017-Oct-06 02:25N 25°48' W 080°15'0 0.0
2017-Oct-06 01:58N 25°48' W 080°15'0 0.0
2017-Oct-06 01:28N 25°48' W 080°15'0 0.0
2017-Oct-06 00:55N 25°48' W 080°15'0 0.0
2017-Oct-06 00:28N 25°48' W 080°15'0 0.0
2017-Oct-05 23:58N 25°48' W 080°15'0 0.0
2017-Oct-05 23:25N 25°48' W 080°15'0 0.0
2017-Oct-05 22:58N 25°48' W 080°15'0 0.0
2017-Oct-05 22:28N 25°48' W 080°15'0 0.0
2017-Oct-05 21:58N 25°48' W 080°15'0 0.0
2017-Oct-05 21:25N 25°48' W 080°15'0 0.0
2017-Oct-05 20:58N 25°48' W 080°15'0 0.0
2017-Oct-05 20:28N 25°48' W 080°15'0 0.0
2017-Oct-05 19:58N 25°48' W 080°15'0 0.0
2017-Oct-05 19:28N 25°48' W 080°15'0 0.0
2017-Oct-05 18:58N 25°48' W 080°15'0 0.0
2017-Oct-05 18:28N 25°48' W 080°15'0 0.0
2017-Oct-05 17:58N 25°48' W 080°15'0 0.0
2017-Oct-05 17:28N 25°48' W 080°15'0 0.0
2017-Oct-05 16:58N 25°48' W 080°15'0 0.0
2017-Oct-05 15:28N 25°48' W 080°15'0 0.0
2017-Oct-05 14:58N 25°48' W 080°15'0 0.0
2017-Oct-05 14:19N 25°48' W 080°15'0 0.0
2017-Oct-05 13:52N 25°48' W 080°15'0 0.0
2017-Oct-05 13:28N 25°48' W 080°15'0 0.0
2017-Oct-05 12:52N 25°48' W 080°15'0 0.0
2017-Oct-05 12:22N 25°48' W 080°15'0 0.0
2017-Oct-05 11:58N 25°48' W 080°15'0 0.0
2017-Oct-05 11:28N 25°48' W 080°15'0 0.0
2017-Oct-05 10:58N 25°48' W 080°15'0 0.0
2017-Oct-05 10:25N 25°48' W 080°15'0 0.0
2017-Oct-05 09:55N 25°48' W 080°15'0 0.0
2017-Oct-05 09:28N 25°48' W 080°15'0 0.0
2017-Oct-05 08:58N 25°48' W 080°15'0 0.0
2017-Oct-05 08:28N 25°48' W 080°15'0 0.0
2017-Oct-05 07:58N 25°48' W 080°15'0 0.0
2017-Oct-05 07:28N 25°48' W 080°15'0 0.0
2017-Oct-05 06:58N 25°48' W 080°15'0 0.0
2017-Oct-05 06:28N 25°48' W 080°15'0 0.0
2017-Oct-05 05:58N 25°48' W 080°15'0 0.0
2017-Oct-05 05:28N 25°48' W 080°15'0 0.0
2017-Oct-05 04:58N 25°48' W 080°15'0 0.0
2017-Oct-05 04:28N 25°48' W 080°15'0 0.0
2017-Oct-05 03:55N 25°48' W 080°15'0 0.0
2017-Oct-05 03:28N 25°48' W 080°15'0 0.0
2017-Oct-05 02:58N 25°48' W 080°15'0 0.0
2017-Oct-05 02:28N 25°48' W 080°15'0 0.0
2017-Oct-05 01:58N 25°48' W 080°15'0 0.0
2017-Oct-05 01:28N 25°48' W 080°15'0 0.0
2017-Oct-05 00:55N 25°48' W 080°15'0 0.0
2017-Oct-05 00:25N 25°48' W 080°15'0 0.0
2017-Oct-04 23:58N 25°48' W 080°15'0 0.0
2017-Oct-04 23:25N 25°48' W 080°15'0 0.0
2017-Oct-04 22:58N 25°48' W 080°15'0 0.0
2017-Oct-04 22:28N 25°48' W 080°15'0 0.0
2017-Oct-04 21:52N 25°48' W 080°15'0 0.0
2017-Oct-04 21:28N 25°48' W 080°15'0 0.0
2017-Oct-04 20:55N 25°48' W 080°15'0 0.0
2017-Oct-04 20:28N 25°48' W 080°15'0 0.0
2017-Oct-04 19:55N 25°48' W 080°15'0 0.0
2017-Oct-04 19:25N 25°48' W 080°15'0 0.0
2017-Oct-04 18:55N 25°48' W 080°15'0 0.0
2017-Oct-04 18:25N 25°48' W 080°15'0 0.0
2017-Oct-04 17:58N 25°48' W 080°15'0 0.0
2017-Oct-04 17:25N 25°48' W 080°15'0 0.0
2017-Oct-04 16:58N 25°48' W 080°15'0 0.0
2017-Oct-04 16:25N 25°48' W 080°15'0 0.0
2017-Oct-04 15:58N 25°48' W 080°15'0 0.0
2017-Oct-04 15:28N 25°48' W 080°15'0 0.0
2017-Oct-04 14:58N 25°48' W 080°15'0 0.0
2017-Oct-04 14:28N 25°48' W 080°15'0 0.0
2017-Oct-04 13:58N 25°48' W 080°15'0 0.0
2017-Oct-04 13:28N 25°48' W 080°15'0 0.0
2017-Oct-04 12:58N 25°48' W 080°15'0 0.0
2017-Oct-04 12:22N 25°48' W 080°15'0 0.0
2017-Oct-04 11:58N 25°48' W 080°15'0 0.0
2017-Oct-04 11:28N 25°48' W 080°15'0 0.0
2017-Oct-04 10:58N 25°48' W 080°15'0 0.0
2017-Oct-04 10:28N 25°48' W 080°15'0 0.0
2017-Oct-04 09:58N 25°48' W 080°15'0 0.0
2017-Oct-04 09:28N 25°48' W 080°15'0 0.0
2017-Oct-04 08:55N 25°48' W 080°15'0 0.0
2017-Oct-04 08:25N 25°48' W 080°15'0 0.0
2017-Oct-04 07:55N 25°48' W 080°15'0 0.0
2017-Oct-04 07:28N 25°48' W 080°15'0 0.0
2017-Oct-04 06:55N 25°48' W 080°15'0 0.0
2017-Oct-04 06:28N 25°48' W 080°15'0 0.0
2017-Oct-04 05:58N 25°48' W 080°15'0 0.0
2017-Oct-04 05:25N 25°48' W 080°15'0 0.0
2017-Oct-04 04:55N 25°48' W 080°15'0 0.0
2017-Oct-04 04:28N 25°48' W 080°15'0 0.0
2017-Oct-04 03:58N 25°48' W 080°15'0 0.0
2017-Oct-04 03:25N 25°48' W 080°15'0 0.0
2017-Oct-04 02:55N 25°48' W 080°15'0 0.0
2017-Oct-04 02:28N 25°48' W 080°15'0 0.0
2017-Oct-04 01:58N 25°48' W 080°15'0 0.0
2017-Oct-04 01:28N 25°48' W 080°15'0 0.0
2017-Oct-04 00:58N 25°48' W 080°15'0 0.0
2017-Oct-04 00:28N 25°48' W 080°15'0 0.0
2017-Oct-03 23:58N 25°48' W 080°15'0 0.0
2017-Oct-03 23:28N 25°48' W 080°15'0 0.0
2017-Oct-03 22:58N 25°48' W 080°15'0 0.0
2017-Oct-03 22:28N 25°48' W 080°15'0 0.0
2017-Oct-03 21:58N 25°48' W 080°15'0 0.0
2017-Oct-03 21:28N 25°48' W 080°15'0 0.0
2017-Oct-03 20:58N 25°48' W 080°15'0 0.0
2017-Oct-03 20:28N 25°48' W 080°15'0 0.0
2017-Oct-03 19:58N 25°48' W 080°15'0 0.0
2017-Oct-03 19:28N 25°48' W 080°15'0 0.0
2017-Oct-03 18:49N 25°48' W 080°15'0 0.0
2017-Oct-03 18:28N 25°48' W 080°15'0 0.0
2017-Oct-03 17:58N 25°48' W 080°15'0 0.0
2017-Oct-03 17:28N 25°48' W 080°15'0 0.0
2017-Oct-03 16:58N 25°48' W 080°15'0 0.0
2017-Oct-03 16:28N 25°48' W 080°15'0 0.0
2017-Oct-03 15:58N 25°48' W 080°15'0 0.0
2017-Oct-03 15:28N 25°48' W 080°15'0 0.0
2017-Oct-03 14:58N 25°48' W 080°15'0 0.0
2017-Oct-03 13:55N 25°48' W 080°15'0 0.0
2017-Oct-03 13:25N 25°48' W 080°15'0 0.0
2017-Oct-03 12:58N 25°48' W 080°15'0 0.0
2017-Oct-03 12:28N 25°48' W 080°15'0 0.0
2017-Oct-03 11:58N 25°48' W 080°15'0 0.0
2017-Oct-03 11:28N 25°48' W 080°15'0 0.0
2017-Oct-03 10:58N 25°48' W 080°15'0 0.0
2017-Oct-03 10:28N 25°48' W 080°15'0 0.0
2017-Oct-03 09:58N 25°48' W 080°15'0 0.0
2017-Oct-03 09:28N 25°48' W 080°15'0 0.0
2017-Oct-03 08:58N 25°48' W 080°15'0 0.0
2017-Oct-03 08:28N 25°48' W 080°15'0 0.0
2017-Oct-03 07:58N 25°48' W 080°15'0 0.0
2017-Oct-03 07:28N 25°48' W 080°15'0 0.0
2017-Oct-03 06:58N 25°48' W 080°15'0 0.0
2017-Oct-03 06:28N 25°48' W 080°15'0 0.0
2017-Oct-03 05:58N 25°48' W 080°15'0 0.0
2017-Oct-03 05:28N 25°48' W 080°15'0 0.0
2017-Oct-03 04:58N 25°48' W 080°15'0 0.0
2017-Oct-03 04:22N 25°48' W 080°15'0 0.0
2017-Oct-03 03:58N 25°48' W 080°15'0 0.0
2017-Oct-03 03:28N 25°48' W 080°15'0 0.0
2017-Oct-03 02:58N 25°48' W 080°15'0 0.0
2017-Oct-03 02:28N 25°48' W 080°15'0 0.0
2017-Oct-03 01:58N 25°48' W 080°15'0 0.0
2017-Oct-03 01:28N 25°48' W 080°15'0 0.0
2017-Oct-03 00:58N 25°48' W 080°15'0 0.0
2017-Oct-03 00:22N 25°48' W 080°15'0 0.0
2017-Oct-02 23:58N 25°48' W 080°15'0 0.0
2017-Oct-02 23:28N 25°48' W 080°15'0 0.0
2017-Oct-02 22:55N 25°48' W 080°15'0 0.0
2017-Oct-02 22:28N 25°48' W 080°15'0 0.0
2017-Oct-02 21:58N 25°48' W 080°15'0 0.0
2017-Oct-02 21:28N 25°48' W 080°15'0 0.0
2017-Oct-02 20:58N 25°48' W 080°15'0 0.0
2017-Oct-02 20:28N 25°48' W 080°15'0 0.0
2017-Oct-02 19:58N 25°48' W 080°15'0 0.0
2017-Oct-02 19:28N 25°48' W 080°15'0 0.0
2017-Oct-02 18:58N 25°48' W 080°15'0 0.0
2017-Oct-02 18:28N 25°48' W 080°15'0 0.0
2017-Oct-02 17:58N 25°48' W 080°15'0 0.0
2017-Oct-02 17:28N 25°48' W 080°15'0 0.0
2017-Oct-02 16:58N 25°48' W 080°15'0 0.0
2017-Oct-02 16:28N 25°48' W 080°15'0 0.0
2017-Oct-02 15:58N 25°48' W 080°15'0 0.0
2017-Oct-02 15:28N 25°48' W 080°15'0 0.0
2017-Oct-02 14:58N 25°48' W 080°15'0 0.0
2017-Oct-02 14:28N 25°48' W 080°15'0 0.0
2017-Oct-02 13:58N 25°48' W 080°15'0 0.0
2017-Oct-02 13:25N 25°48' W 080°15'0 0.0
2017-Oct-02 12:58N 25°48' W 080°15'0 0.0
2017-Oct-02 12:28N 25°48' W 080°15'0 0.0
2017-Oct-02 11:58N 25°48' W 080°15'0 0.0
2017-Oct-02 11:28N 25°48' W 080°15'0 0.0
2017-Oct-02 10:58N 25°48' W 080°15'0 0.0
2017-Oct-02 10:28N 25°48' W 080°15'0 0.0
2017-Oct-02 09:58N 25°48' W 080°15'0 0.0
2017-Oct-02 09:25N 25°48' W 080°15'0 0.0
2017-Oct-02 08:58N 25°48' W 080°15'0 0.0
2017-Oct-02 08:28N 25°48' W 080°15'0 0.0
2017-Oct-02 07:58N 25°48' W 080°15'0 0.0
2017-Oct-02 07:28N 25°48' W 080°15'0 0.0
2017-Oct-02 06:55N 25°48' W 080°15'0 0.0
2017-Oct-02 06:28N 25°48' W 080°15'0 0.0
2017-Oct-02 05:58N 25°48' W 080°15'0 0.0
2017-Oct-02 05:28N 25°48' W 080°15'0 0.0
2017-Oct-02 04:58N 25°48' W 080°15'0 0.0
2017-Oct-02 04:28N 25°48' W 080°15'0 0.0
2017-Oct-02 03:58N 25°48' W 080°15'0 0.0
2017-Oct-02 03:28N 25°48' W 080°15'0 0.0
2017-Oct-02 02:58N 25°48' W 080°15'0 0.0
2017-Oct-02 02:28N 25°48' W 080°15'0 0.0
2017-Oct-02 01:58N 25°48' W 080°15'0 0.0
2017-Oct-02 01:28N 25°48' W 080°15'0 0.0
2017-Oct-02 00:58N 25°48' W 080°15'0 0.0
2017-Oct-02 00:28N 25°48' W 080°15'0 0.0
2017-Oct-01 23:58N 25°48' W 080°15'0 0.0
2017-Oct-01 23:28N 25°48' W 080°15'0 0.0
2017-Oct-01 22:58N 25°48' W 080°15'0 0.0
2017-Oct-01 22:25N 25°48' W 080°15'0 0.0
2017-Oct-01 21:58N 25°48' W 080°15'0 0.0
2017-Oct-01 21:28N 25°48' W 080°15'0 0.0
2017-Oct-01 20:58N 25°48' W 080°15'0 0.0
2017-Oct-01 20:28N 25°48' W 080°15'0 0.0
2017-Oct-01 19:58N 25°48' W 080°15'0 0.0
2017-Oct-01 19:28N 25°48' W 080°15'0 0.0
2017-Oct-01 18:55N 25°48' W 080°15'0 0.0
2017-Oct-01 18:30N 25°48' W 080°15'0 0.0
2017-Oct-01 17:58N 25°48' W 080°15'0 0.0
2017-Oct-01 17:28N 25°48' W 080°15'0 0.0
2017-Oct-01 16:58N 25°48' W 080°15'0 0.0
2017-Oct-01 16:31N 25°48' W 080°15'0 0.0
2017-Oct-01 15:58N 25°48' W 080°15'0 0.0
2017-Oct-01 15:28N 25°48' W 080°15'0 0.0
2017-Oct-01 14:57N 25°48' W 080°15'0 0.0
2017-Oct-01 14:31N 25°48' W 080°15'0 0.0
2017-Oct-01 14:01N 25°48' W 080°15'0 0.0
2017-Oct-01 13:28N 25°48' W 080°15'0 0.0
2017-Oct-01 12:58N 25°48' W 080°15'0 0.0
2017-Oct-01 12:28N 25°48' W 080°15'0 0.0
2017-Oct-01 11:58N 25°48' W 080°15'0 0.0
2017-Oct-01 11:28N 25°48' W 080°15'0 0.0
2017-Oct-01 10:58N 25°48' W 080°15'0 0.0
2017-Oct-01 10:28N 25°48' W 080°15'0 0.0
2017-Oct-01 10:00N 25°48' W 080°15'0 0.0
2017-Oct-01 09:30N 25°48' W 080°15'0 0.0
2017-Oct-01 08:58N 25°48' W 080°15'0 0.0
2017-Oct-01 08:31N 25°48' W 080°15'0 0.0
2017-Oct-01 08:01N 25°48' W 080°15'0 0.0
2017-Oct-01 07:30N 25°48' W 080°15'0 0.0
2017-Oct-01 06:55N 25°48' W 080°15'0 0.0
2017-Oct-01 06:25N 25°48' W 080°15'0 0.0
2017-Oct-01 06:01N 25°48' W 080°15'0 0.0
2017-Oct-01 05:31N 25°48' W 080°15'0 0.0
2017-Oct-01 05:01N 25°48' W 080°15'0 0.0
2017-Oct-01 04:31N 25°48' W 080°15'0 0.0
2017-Oct-01 03:54N 25°48' W 080°15'0 0.0
2017-Oct-01 03:30N 25°48' W 080°15'0 0.0
2017-Oct-01 02:57N 25°48' W 080°15'0 0.0
2017-Sep-30 01:49N 25°48' W 080°15'0 0.0
2017-Sep-30 01:22N 25°48' W 080°15'0 0.0
2017-Sep-30 00:52N 25°48' W 080°15'0 0.0
2017-Sep-30 00:22N 25°48' W 080°15'0 0.0
2017-Sep-29 23:49N 25°48' W 080°15'0 0.0
2017-Sep-29 23:22N 25°48' W 080°15'0 0.0
2017-Sep-29 22:52N 25°48' W 080°15'0 0.0
2017-Sep-29 22:25N 25°48' W 080°15'0 0.0
2017-Sep-29 21:55N 25°48' W 080°15'0 0.0
2017-Sep-29 21:25N 25°48' W 080°15'0 0.0
2017-Sep-29 20:55N 25°48' W 080°15'0 0.0
2017-Sep-29 20:25N 25°48' W 080°15'0 0.0
2017-Sep-29 19:58N 25°48' W 080°15'0 0.0
2017-Sep-29 19:25N 25°48' W 080°15'0 0.0
2017-Sep-29 18:58N 25°48' W 080°15'0 0.0
2017-Sep-29 18:28N 25°48' W 080°15'0 0.0
2017-Sep-29 16:58N 25°48' W 080°15'0 0.0
2017-Sep-29 16:28N 25°48' W 080°15'0 0.0
2017-Sep-29 15:58N 25°48' W 080°15'0 0.0
2017-Sep-29 15:28N 25°48' W 080°15'0 0.0
2017-Sep-29 14:58N 25°48' W 080°15'0 0.0
2017-Sep-29 14:28N 25°48' W 080°15'0 0.0
2017-Sep-29 13:58N 25°48' W 080°15'0 0.0
2017-Sep-29 13:28N 25°48' W 080°15'0 0.0
2017-Sep-29 12:49N 25°48' W 080°15'0 0.0
2017-Sep-29 12:28N 25°48' W 080°15'0 0.0
2017-Sep-29 11:49N 25°48' W 080°15'0 0.0
2017-Sep-29 11:28N 25°48' W 080°15'0 0.0
2017-Sep-29 10:46N 25°48' W 080°15'0 0.0
2017-Sep-29 10:22N 25°48' W 080°15'0 0.0
2017-Sep-29 09:52N 25°48' W 080°15'0 0.0
2017-Sep-29 09:19N 25°48' W 080°15'0 0.0
2017-Sep-29 08:52N 25°48' W 080°15'0 0.0
2017-Sep-29 08:22N 25°48' W 080°15'0 0.0
2017-Sep-29 07:55N 25°48' W 080°15'0 0.0
2017-Sep-29 07:25N 25°48' W 080°15'0 0.0
2017-Sep-29 06:55N 25°48' W 080°15'0 0.0
2017-Sep-29 06:25N 25°48' W 080°15'0 0.0
2017-Sep-29 05:55N 25°48' W 080°15'0 0.0
2017-Sep-29 05:28N 25°48' W 080°15'0 0.0
2017-Sep-29 04:55N 25°48' W 080°15'0 0.0
2017-Sep-29 04:28N 25°48' W 080°15'0 0.0
2017-Sep-29 03:58N 25°48' W 080°15'0 0.0
2017-Sep-29 03:25N 25°48' W 080°15'0 0.0
2017-Sep-29 02:58N 25°48' W 080°15'0 0.0
2017-Sep-29 02:28N 25°48' W 080°15'0 0.0
2017-Sep-29 01:58N 25°48' W 080°15'0 0.0
2017-Sep-29 01:28N 25°48' W 080°15'0 0.0
2017-Sep-29 00:55N 25°48' W 080°15'0 0.0
2017-Sep-29 00:28N 25°48' W 080°15'0 0.0
2017-Sep-28 23:58N 25°48' W 080°15'0 0.0
2017-Sep-28 23:28N 25°48' W 080°15'0 0.0
2017-Sep-28 22:58N 25°48' W 080°15'0 0.0
2017-Sep-28 22:13N 25°48' W 080°15'0 0.0
2017-Sep-28 21:58N 25°48' W 080°15'0 0.0
2017-Sep-28 21:19N 25°48' W 080°15'0 0.0
2017-Sep-28 20:46N 25°48' W 080°15'0 0.0
2017-Sep-28 20:22N 25°48' W 080°15'0 0.0
2017-Sep-28 19:52N 25°48' W 080°15'0 0.0
2017-Sep-28 19:19N 25°48' W 080°15'0 0.0
2017-Sep-28 18:52N 25°48' W 080°15'0 0.0
2017-Sep-28 18:22N 25°48' W 080°15'0 0.0
2017-Sep-28 17:49N 25°48' W 080°15'0 0.0
2017-Sep-28 17:25N 25°48' W 080°15'0 0.0
2017-Sep-28 16:55N 25°48' W 080°15'0 0.0
2017-Sep-28 16:25N 25°48' W 080°15'0 0.0
2017-Sep-28 15:55N 25°48' W 080°15'0 0.0
2017-Sep-28 15:25N 25°48' W 080°15'0 0.0
2017-Sep-28 14:55N 25°48' W 080°15'0 0.0
2017-Sep-28 14:28N 25°48' W 080°15'0 0.0
2017-Sep-28 13:58N 25°48' W 080°15'0 0.0
2017-Sep-28 13:28N 25°48' W 080°15'0 0.0
2017-Sep-28 12:58N 25°48' W 080°15'0 0.0
2017-Sep-28 12:28N 25°48' W 080°15'0 0.0
2017-Sep-28 11:58N 25°48' W 080°15'0 0.0
2017-Sep-28 11:28N 25°48' W 080°15'0 0.0
2017-Sep-28 10:55N 25°48' W 080°15'0 0.0
2017-Sep-28 10:28N 25°48' W 080°15'0 0.0
2017-Sep-28 09:58N 25°48' W 080°15'0 0.0
2017-Sep-28 09:28N 25°48' W 080°15'0 0.0
2017-Sep-28 08:58N 25°48' W 080°15'0 0.0
2017-Sep-28 08:28N 25°48' W 080°15'0 0.0
2017-Sep-28 07:58N 25°48' W 080°15'0 0.0
2017-Sep-28 07:28N 25°48' W 080°15'0 0.0
2017-Sep-28 06:58N 25°48' W 080°15'0 0.0
2017-Sep-28 06:19N 25°48' W 080°15'0 0.0
2017-Sep-28 05:49N 25°48' W 080°15'0 0.0
2017-Sep-28 05:19N 25°48' W 080°15'0 0.0
2017-Sep-28 04:52N 25°48' W 080°15'0 0.0
2017-Sep-28 04:22N 25°48' W 080°15'0 0.0
2017-Sep-28 03:52N 25°48' W 080°15'0 0.0
2017-Sep-28 03:22N 25°48' W 080°15'0 0.0
2017-Sep-28 02:52N 25°48' W 080°15'0 0.0
2017-Sep-28 02:22N 25°48' W 080°15'0 0.0
2017-Sep-28 01:55N 25°48' W 080°15'  
Track history (hours):
 
Tides and Currents Weather Stations Pressure Air Temp Water Temp Dewpoint Dewpoint Depression Visibility Wind Speed Wind Dir Waves Ship Positions

Altagrace

Last reported at 2017-Oct-08 01:39 UTC. Time now 2017-Oct-19 13:15 UTC.
Position N 25°24' W 079°55'.
Warning: this ship's position is 11 days out of date.

Length 82 m; draft 4.6 m.

Type: Cargo ship. MMSI: 377901040.

Date/timePositionNaut miles runAvg speedWind from/ knotsBaromVisibWave heightAir tempDewpointWater temp
2017-Oct-08 01:39N 25°24' W 079°55'1 8.5
2017-Oct-08 01:30N 25°26' W 079°55'4 8.1
2017-Oct-08 01:00N 25°30' W 079°56'4 8.9
2017-Oct-08 00:30N 25°34' W 079°58'5 9.2
2017-Oct-08 00:00N 25°38' W 080°00'4 8.9
2017-Oct-07 23:30N 25°42' W 080°03'4 8.7
2017-Oct-07 23:00N 25°45' W 080°05'4 7.7
2017-Oct-07 22:30N 25°46' W 080°10'2 3.2
2017-Oct-07 22:00N 25°46' W 080°11'1 2.9
2017-Oct-07 21:30N 25°47' W 080°13'2 3.2
2017-Oct-07 21:00N 25°48' W 080°14'0 0.8
2017-Oct-07 20:28N 25°48' W 080°15'0 0.0
2017-Oct-07 19:58N 25°48' W 080°15'0 0.0
2017-Oct-07 19:28N 25°48' W 080°15'0 0.0
2017-Oct-07 18:58N 25°48' W 080°15'0 0.0
2017-Oct-07 18:28N 25°48' W 080°15'0 0.0
2017-Oct-07 17:58N 25°48' W 080°15'0 0.0
2017-Oct-07 17:28N 25°48' W 080°15'0 0.0
2017-Oct-07 16:58N 25°48' W 080°15'0 0.0
2017-Oct-07 16:28N 25°48' W 080°15'0 0.0
2017-Oct-07 15:58N 25°48' W 080°15'0 0.0
2017-Oct-07 15:28N 25°48' W 080°15'0 0.0
2017-Oct-07 14:58N 25°48' W 080°15'0 0.0
2017-Oct-07 14:28N 25°48' W 080°15'0 0.0
2017-Oct-07 13:58N 25°48' W 080°15'0 0.0
2017-Oct-07 13:28N 25°48' W 080°15'0 0.0
2017-Oct-07 12:58N 25°48' W 080°15'0 0.0
2017-Oct-07 12:28N 25°48' W 080°15'0 0.0
2017-Oct-07 11:55N 25°48' W 080°15'0 0.0
2017-Oct-07 11:22N 25°48' W 080°15'0 0.0
2017-Oct-07 10:58N 25°48' W 080°15'0 0.0
2017-Oct-07 10:28N 25°48' W 080°15'0 0.0
2017-Oct-07 09:52N 25°48' W 080°15'0 0.0
2017-Oct-07 09:28N 25°48' W 080°15'0 0.0
2017-Oct-07 08:58N 25°48' W 080°15'0 0.0
2017-Oct-07 08:28N 25°48' W 080°15'0 0.0
2017-Oct-07 07:58N 25°48' W 080°15'0 0.0
2017-Oct-07 07:28N 25°48' W 080°15'0 0.0
2017-Oct-07 06:55N 25°48' W 080°15'0 0.0
2017-Oct-07 06:25N 25°48' W 080°15'0 0.0
2017-Oct-07 05:55N 25°48' W 080°15'0 0.0
2017-Oct-07 05:25N 25°48' W 080°15'0 0.0
2017-Oct-07 04:58N 25°48' W 080°15'0 0.0
2017-Oct-07 04:28N 25°48' W 080°15'0 0.0
2017-Oct-07 03:58N 25°48' W 080°15'0 0.0
2017-Oct-07 03:28N 25°48' W 080°15'0 0.0
2017-Oct-07 02:58N 25°48' W 080°15'0 0.0
2017-Oct-07 02:28N 25°48' W 080°15'0 0.0
2017-Oct-07 01:58N 25°48' W 080°15'0 0.0
2017-Oct-07 01:28N 25°48' W 080°15'0 0.0
2017-Oct-07 00:58N 25°48' W 080°15'0 0.0
2017-Oct-07 00:28N 25°48' W 080°15'0 0.0
2017-Oct-06 23:58N 25°48' W 080°15'0 0.0
2017-Oct-06 23:28N 25°48' W 080°15'0 0.0
2017-Oct-06 22:58N 25°48' W 080°15'0 0.0
2017-Oct-06 22:28N 25°48' W 080°15'0 0.0
2017-Oct-06 21:58N 25°48' W 080°15'0 0.0
2017-Oct-06 21:25N 25°48' W 080°15'0 0.0
2017-Oct-06 20:58N 25°48' W 080°15'0 0.0
2017-Oct-06 20:22N 25°48' W 080°15'0 0.0
2017-Oct-06 19:58N 25°48' W 080°15'0 0.0
2017-Oct-06 19:28N 25°48' W 080°15'0 0.0
2017-Oct-06 18:49N 25°48' W 080°15'0 0.0
2017-Oct-06 18:28N 25°48' W 080°15'0 0.0
2017-Oct-06 17:58N 25°48' W 080°15'0 0.0
2017-Oct-06 17:28N 25°48' W 080°15'0 0.0
2017-Oct-06 16:55N 25°48' W 080°15'0 0.0
2017-Oct-06 16:25N 25°48' W 080°15'0 0.0
2017-Oct-06 15:58N 25°48' W 080°15'0 0.0
2017-Oct-06 15:28N 25°48' W 080°15'0 0.0
2017-Oct-06 14:55N 25°48' W 080°15'0 0.0
2017-Oct-06 14:28N 25°48' W 080°15'0 0.0
2017-Oct-06 13:58N 25°48' W 080°15'0 0.0
2017-Oct-06 13:28N 25°48' W 080°15'0 0.0
2017-Oct-06 12:58N 25°48' W 080°15'0 0.0
2017-Oct-06 12:28N 25°48' W 080°15'0 0.0
2017-Oct-06 11:58N 25°48' W 080°15'0 0.0
2017-Oct-06 11:28N 25°48' W 080°15'0 0.0
2017-Oct-06 10:58N 25°48' W 080°15'0 0.0
2017-Oct-06 10:28N 25°48' W 080°15'0 0.0
2017-Oct-06 09:58N 25°48' W 080°15'0 0.0
2017-Oct-06 09:28N 25°48' W 080°15'0 0.0
2017-Oct-06 08:58N 25°48' W 080°15'0 0.0
2017-Oct-06 08:28N 25°48' W 080°15'0 0.0
2017-Oct-06 07:58N 25°48' W 080°15'0 0.0
2017-Oct-06 07:28N 25°48' W 080°15'0 0.0
2017-Oct-06 06:49N 25°48' W 080°15'0 0.0
2017-Oct-06 06:28N 25°48' W 080°15'0 0.0
2017-Oct-06 05:58N 25°48' W 080°15'0 0.0
2017-Oct-06 05:28N 25°48' W 080°15'0 0.0
2017-Oct-06 04:55N 25°48' W 080°15'0 0.0
2017-Oct-06 04:28N 25°48' W 080°15'0 0.0
2017-Oct-06 03:58N 25°48' W 080°15'0 0.0
2017-Oct-06 03:28N 25°48' W 080°15'0 0.0
2017-Oct-06 02:58N 25°48' W 080°15'0 0.0
2017-Oct-06 02:25N 25°48' W 080°15'0 0.0
2017-Oct-06 01:58N 25°48' W 080°15'0 0.0
2017-Oct-06 01:28N 25°48' W 080°15'0 0.0
2017-Oct-06 00:55N 25°48' W 080°15'0 0.0
2017-Oct-06 00:28N 25°48' W 080°15'0 0.0
2017-Oct-05 23:58N 25°48' W 080°15'0 0.0
2017-Oct-05 23:25N 25°48' W 080°15'0 0.0
2017-Oct-05 22:58N 25°48' W 080°15'0 0.0
2017-Oct-05 22:28N 25°48' W 080°15'0 0.0
2017-Oct-05 21:58N 25°48' W 080°15'0 0.0
2017-Oct-05 21:25N 25°48' W 080°15'0 0.0
2017-Oct-05 20:58N 25°48' W 080°15'0 0.0
2017-Oct-05 20:28N 25°48' W 080°15'0 0.0
2017-Oct-05 19:58N 25°48' W 080°15'0 0.0
2017-Oct-05 19:28N 25°48' W 080°15'0 0.0
2017-Oct-05 18:58N 25°48' W 080°15'0 0.0
2017-Oct-05 18:28N 25°48' W 080°15'0 0.0
2017-Oct-05 17:58N 25°48' W 080°15'0 0.0
2017-Oct-05 17:28N 25°48' W 080°15'0 0.0
2017-Oct-05 16:58N 25°48' W 080°15'0 0.0
2017-Oct-05 15:28N 25°48' W 080°15'0 0.0
2017-Oct-05 14:58N 25°48' W 080°15'0 0.0
2017-Oct-05 14:19N 25°48' W 080°15'0 0.0
2017-Oct-05 13:52N 25°48' W 080°15'0 0.0
2017-Oct-05 13:28N 25°48' W 080°15'0 0.0
2017-Oct-05 12:52N 25°48' W 080°15'0 0.0
2017-Oct-05 12:22N 25°48' W 080°15'0 0.0
2017-Oct-05 11:58N 25°48' W 080°15'0 0.0
2017-Oct-05 11:28N 25°48' W 080°15'0 0.0
2017-Oct-05 10:58N 25°48' W 080°15'0 0.0
2017-Oct-05 10:25N 25°48' W 080°15'0 0.0
2017-Oct-05 09:55N 25°48' W 080°15'0 0.0
2017-Oct-05 09:28N 25°48' W 080°15'0 0.0
2017-Oct-05 08:58N 25°48' W 080°15'0 0.0
2017-Oct-05 08:28N 25°48' W 080°15'0 0.0
2017-Oct-05 07:58N 25°48' W 080°15'0 0.0
2017-Oct-05 07:28N 25°48' W 080°15'0 0.0
2017-Oct-05 06:58N 25°48' W 080°15'0 0.0
2017-Oct-05 06:28N 25°48' W 080°15'0 0.0
2017-Oct-05 05:58N 25°48' W 080°15'0 0.0
2017-Oct-05 05:28N 25°48' W 080°15'0 0.0
2017-Oct-05 04:58N 25°48' W 080°15'0 0.0
2017-Oct-05 04:28N 25°48' W 080°15'0 0.0
2017-Oct-05 03:55N 25°48' W 080°15'0 0.0
2017-Oct-05 03:28N 25°48' W 080°15'0 0.0
2017-Oct-05 02:58N 25°48' W 080°15'0 0.0
2017-Oct-05 02:28N 25°48' W 080°15'0 0.0
2017-Oct-05 01:58N 25°48' W 080°15'0 0.0
2017-Oct-05 01:28N 25°48' W 080°15'0 0.0
2017-Oct-05 00:55N 25°48' W 080°15'0 0.0
2017-Oct-05 00:25N 25°48' W 080°15'0 0.0
2017-Oct-04 23:58N 25°48' W 080°15'0 0.0
2017-Oct-04 23:25N 25°48' W 080°15'0 0.0
2017-Oct-04 22:58N 25°48' W 080°15'0 0.0
2017-Oct-04 22:28N 25°48' W 080°15'0 0.0
2017-Oct-04 21:52N 25°48' W 080°15'0 0.0
2017-Oct-04 21:28N 25°48' W 080°15'0 0.0
2017-Oct-04 20:55N 25°48' W 080°15'0 0.0
2017-Oct-04 20:28N 25°48' W 080°15'0 0.0
2017-Oct-04 19:55N 25°48' W 080°15'0 0.0
2017-Oct-04 19:25N 25°48' W 080°15'0 0.0
2017-Oct-04 18:55N 25°48' W 080°15'0 0.0
2017-Oct-04 18:25N 25°48' W 080°15'0 0.0
2017-Oct-04 17:58N 25°48' W 080°15'0 0.0
2017-Oct-04 17:25N 25°48' W 080°15'0 0.0
2017-Oct-04 16:58N 25°48' W 080°15'0 0.0
2017-Oct-04 16:25N 25°48' W 080°15'0 0.0
2017-Oct-04 15:58N 25°48' W 080°15'0 0.0
2017-Oct-04 15:28N 25°48' W 080°15'0 0.0
2017-Oct-04 14:58N 25°48' W 080°15'0 0.0
2017-Oct-04 14:28N 25°48' W 080°15'0 0.0
2017-Oct-04 13:58N 25°48' W 080°15'0 0.0
2017-Oct-04 13:28N 25°48' W 080°15'0 0.0
2017-Oct-04 12:58N 25°48' W 080°15'0 0.0
2017-Oct-04 12:22N 25°48' W 080°15'0 0.0
2017-Oct-04 11:58N 25°48' W 080°15'0 0.0
2017-Oct-04 11:28N 25°48' W 080°15'0 0.0
2017-Oct-04 10:58N 25°48' W 080°15'0 0.0
2017-Oct-04 10:28N 25°48' W 080°15'0 0.0
2017-Oct-04 09:58N 25°48' W 080°15'0 0.0
2017-Oct-04 09:28N 25°48' W 080°15'0 0.0
2017-Oct-04 08:55N 25°48' W 080°15'0 0.0
2017-Oct-04 08:25N 25°48' W 080°15'0 0.0
2017-Oct-04 07:55N 25°48' W 080°15'0 0.0
2017-Oct-04 07:28N 25°48' W 080°15'0 0.0
2017-Oct-04 06:55N 25°48' W 080°15'0 0.0
2017-Oct-04 06:28N 25°48' W 080°15'0 0.0
2017-Oct-04 05:58N 25°48' W 080°15'0 0.0
2017-Oct-04 05:25N 25°48' W 080°15'0 0.0
2017-Oct-04 04:55N 25°48' W 080°15'0 0.0
2017-Oct-04 04:28N 25°48' W 080°15'0 0.0
2017-Oct-04 03:58N 25°48' W 080°15'0 0.0
2017-Oct-04 03:25N 25°48' W 080°15'0 0.0
2017-Oct-04 02:55N 25°48' W 080°15'0 0.0
2017-Oct-04 02:28N 25°48' W 080°15'0 0.0
2017-Oct-04 01:58N 25°48' W 080°15'0 0.0
2017-Oct-04 01:28N 25°48' W 080°15'0 0.0
2017-Oct-04 00:58N 25°48' W 080°15'0 0.0
2017-Oct-04 00:28N 25°48' W 080°15'0 0.0
2017-Oct-03 23:58N 25°48' W 080°15'0 0.0
2017-Oct-03 23:28N 25°48' W 080°15'0 0.0
2017-Oct-03 22:58N 25°48' W 080°15'0 0.0
2017-Oct-03 22:28N 25°48' W 080°15'0 0.0
2017-Oct-03 21:58N 25°48' W 080°15'0 0.0
2017-Oct-03 21:28N 25°48' W 080°15'0 0.0
2017-Oct-03 20:58N 25°48' W 080°15'0 0.0
2017-Oct-03 20:28N 25°48' W 080°15'0 0.0
2017-Oct-03 19:58N 25°48' W 080°15'0 0.0
2017-Oct-03 19:28N 25°48' W 080°15'0 0.0
2017-Oct-03 18:49N 25°48' W 080°15'0 0.0
2017-Oct-03 18:28N 25°48' W 080°15'0 0.0
2017-Oct-03 17:58N 25°48' W 080°15'0 0.0
2017-Oct-03 17:28N 25°48' W 080°15'0 0.0
2017-Oct-03 16:58N 25°48' W 080°15'0 0.0
2017-Oct-03 16:28N 25°48' W 080°15'0 0.0
2017-Oct-03 15:58N 25°48' W 080°15'0 0.0
2017-Oct-03 15:28N 25°48' W 080°15'0 0.0
2017-Oct-03 14:58N 25°48' W 080°15'0 0.0
2017-Oct-03 13:55N 25°48' W 080°15'0 0.0
2017-Oct-03 13:25N 25°48' W 080°15'0 0.0
2017-Oct-03 12:58N 25°48' W 080°15'0 0.0
2017-Oct-03 12:28N 25°48' W 080°15'0 0.0
2017-Oct-03 11:58N 25°48' W 080°15'0 0.0
2017-Oct-03 11:28N 25°48' W 080°15'0 0.0
2017-Oct-03 10:58N 25°48' W 080°15'0 0.0
2017-Oct-03 10:28N 25°48' W 080°15'0 0.0
2017-Oct-03 09:58N 25°48' W 080°15'0 0.0
2017-Oct-03 09:28N 25°48' W 080°15'0 0.0
2017-Oct-03 08:58N 25°48' W 080°15'0 0.0
2017-Oct-03 08:28N 25°48' W 080°15'0 0.0
2017-Oct-03 07:58N 25°48' W 080°15'0 0.0
2017-Oct-03 07:28N 25°48' W 080°15'0 0.0
2017-Oct-03 06:58N 25°48' W 080°15'0 0.0
2017-Oct-03 06:28N 25°48' W 080°15'0 0.0
2017-Oct-03 05:58N 25°48' W 080°15'0 0.0
2017-Oct-03 05:28N 25°48' W 080°15'0 0.0
2017-Oct-03 04:58N 25°48' W 080°15'0 0.0
2017-Oct-03 04:22N 25°48' W 080°15'0 0.0
2017-Oct-03 03:58N 25°48' W 080°15'0 0.0
2017-Oct-03 03:28N 25°48' W 080°15'0 0.0
2017-Oct-03 02:58N 25°48' W 080°15'0 0.0
2017-Oct-03 02:28N 25°48' W 080°15'0 0.0
2017-Oct-03 01:58N 25°48' W 080°15'0 0.0
2017-Oct-03 01:28N 25°48' W 080°15'0 0.0
2017-Oct-03 00:58N 25°48' W 080°15'0 0.0
2017-Oct-03 00:22N 25°48' W 080°15'0 0.0
2017-Oct-02 23:58N 25°48' W 080°15'0 0.0
2017-Oct-02 23:28N 25°48' W 080°15'0 0.0
2017-Oct-02 22:55N 25°48' W 080°15'0 0.0
2017-Oct-02 22:28N 25°48' W 080°15'0 0.0
2017-Oct-02 21:58N 25°48' W 080°15'0 0.0
2017-Oct-02 21:28N 25°48' W 080°15'0 0.0
2017-Oct-02 20:58N 25°48' W 080°15'0 0.0
2017-Oct-02 20:28N 25°48' W 080°15'0 0.0
2017-Oct-02 19:58N 25°48' W 080°15'0 0.0
2017-Oct-02 19:28N 25°48' W 080°15'0 0.0
2017-Oct-02 18:58N 25°48' W 080°15'0 0.0
2017-Oct-02 18:28N 25°48' W 080°15'0 0.0
2017-Oct-02 17:58N 25°48' W 080°15'0 0.0
2017-Oct-02 17:28N 25°48' W 080°15'0 0.0
2017-Oct-02 16:58N 25°48' W 080°15'0 0.0
2017-Oct-02 16:28N 25°48' W 080°15'0 0.0
2017-Oct-02 15:58N 25°48' W 080°15'0 0.0
2017-Oct-02 15:28N 25°48' W 080°15'0 0.0
2017-Oct-02 14:58N 25°48' W 080°15'0 0.0
2017-Oct-02 14:28N 25°48' W 080°15'0 0.0
2017-Oct-02 13:58N 25°48' W 080°15'0 0.0
2017-Oct-02 13:25N 25°48' W 080°15'0 0.0
2017-Oct-02 12:58N 25°48' W 080°15'0 0.0
2017-Oct-02 12:28N 25°48' W 080°15'0 0.0
2017-Oct-02 11:58N 25°48' W 080°15'0 0.0
2017-Oct-02 11:28N 25°48' W 080°15'0 0.0
2017-Oct-02 10:58N 25°48' W 080°15'0 0.0
2017-Oct-02 10:28N 25°48' W 080°15'0 0.0
2017-Oct-02 09:58N 25°48' W 080°15'0 0.0
2017-Oct-02 09:25N 25°48' W 080°15'0 0.0
2017-Oct-02 08:58N 25°48' W 080°15'0 0.0
2017-Oct-02 08:28N 25°48' W 080°15'0 0.0
2017-Oct-02 07:58N 25°48' W 080°15'0 0.0
2017-Oct-02 07:28N 25°48' W 080°15'0 0.0
2017-Oct-02 06:55N 25°48' W 080°15'0 0.0
2017-Oct-02 06:28N 25°48' W 080°15'0 0.0
2017-Oct-02 05:58N 25°48' W 080°15'0 0.0
2017-Oct-02 05:28N 25°48' W 080°15'0 0.0
2017-Oct-02 04:58N 25°48' W 080°15'0 0.0
2017-Oct-02 04:28N 25°48' W 080°15'0 0.0
2017-Oct-02 03:58N 25°48' W 080°15'0 0.0
2017-Oct-02 03:28N 25°48' W 080°15'0 0.0
2017-Oct-02 02:58N 25°48' W 080°15'0 0.0
2017-Oct-02 02:28N 25°48' W 080°15'0 0.0
2017-Oct-02 01:58N 25°48' W 080°15'0 0.0
2017-Oct-02 01:28N 25°48' W 080°15'0 0.0
2017-Oct-02 00:58N 25°48' W 080°15'0 0.0
2017-Oct-02 00:28N 25°48' W 080°15'0 0.0
2017-Oct-01 23:58N 25°48' W 080°15'0 0.0
2017-Oct-01 23:28N 25°48' W 080°15'0 0.0
2017-Oct-01 22:58N 25°48' W 080°15'0 0.0
2017-Oct-01 22:25N 25°48' W 080°15'0 0.0
2017-Oct-01 21:58N 25°48' W 080°15'0 0.0
2017-Oct-01 21:28N 25°48' W 080°15'0 0.0
2017-Oct-01 20:58N 25°48' W 080°15'0 0.0
2017-Oct-01 20:28N 25°48' W 080°15'0 0.0
2017-Oct-01 19:58N 25°48' W 080°15'0 0.0
2017-Oct-01 19:28N 25°48' W 080°15'0 0.0
2017-Oct-01 18:55N 25°48' W 080°15'0 0.0
2017-Oct-01 18:30N 25°48' W 080°15'0 0.0
2017-Oct-01 17:58N 25°48' W 080°15'0 0.0
2017-Oct-01 17:28N 25°48' W 080°15'0 0.0
2017-Oct-01 16:58N 25°48' W 080°15'0 0.0
2017-Oct-01 16:31N 25°48' W 080°15'0 0.0
2017-Oct-01 15:58N 25°48' W 080°15'0 0.0
2017-Oct-01 15:28N 25°48' W 080°15'0 0.0
2017-Oct-01 14:57N 25°48' W 080°15'0 0.0
2017-Oct-01 14:31N 25°48' W 080°15'0 0.0
2017-Oct-01 14:01N 25°48' W 080°15'0 0.0
2017-Oct-01 13:28N 25°48' W 080°15'0 0.0
2017-Oct-01 12:58N 25°48' W 080°15'0 0.0
2017-Oct-01 12:28N 25°48' W 080°15'0 0.0
2017-Oct-01 11:58N 25°48' W 080°15'0 0.0
2017-Oct-01 11:28N 25°48' W 080°15'0 0.0
2017-Oct-01 10:58N 25°48' W 080°15'0 0.0
2017-Oct-01 10:28N 25°48' W 080°15'0 0.0
2017-Oct-01 10:00N 25°48' W 080°15'0 0.0
2017-Oct-01 09:30N 25°48' W 080°15'0 0.0
2017-Oct-01 08:58N 25°48' W 080°15'0 0.0
2017-Oct-01 08:31N 25°48' W 080°15'0 0.0
2017-Oct-01 08:01N 25°48' W 080°15'0 0.0
2017-Oct-01 07:30N 25°48' W 080°15'0 0.0
2017-Oct-01 06:55N 25°48' W 080°15'0 0.0
2017-Oct-01 06:25N 25°48' W 080°15'0 0.0
2017-Oct-01 06:01N 25°48' W 080°15'0 0.0
2017-Oct-01 05:31N 25°48' W 080°15'0 0.0
2017-Oct-01 05:01N 25°48' W 080°15'0 0.0
2017-Oct-01 04:31N 25°48' W 080°15'0 0.0
2017-Oct-01 03:54N 25°48' W 080°15'0 0.0
2017-Oct-01 03:30N 25°48' W 080°15'0 0.0
2017-Oct-01 02:57N 25°48' W 080°15'0 0.0
2017-Sep-30 01:49N 25°48' W 080°15'0 0.0
2017-Sep-30 01:22N 25°48' W 080°15'0 0.0
2017-Sep-30 00:52N 25°48' W 080°15'0 0.0
2017-Sep-30 00:22N 25°48' W 080°15'0 0.0
2017-Sep-29 23:49N 25°48' W 080°15'0 0.0
2017-Sep-29 23:22N 25°48' W 080°15'0 0.0
2017-Sep-29 22:52N 25°48' W 080°15'0 0.0
2017-Sep-29 22:25N 25°48' W 080°15'0 0.0
2017-Sep-29 21:55N 25°48' W 080°15'0 0.0
2017-Sep-29 21:25N 25°48' W 080°15'0 0.0
2017-Sep-29 20:55N 25°48' W 080°15'0 0.0
2017-Sep-29 20:25N 25°48' W 080°15'0 0.0
2017-Sep-29 19:58N 25°48' W 080°15'0 0.0
2017-Sep-29 19:25N 25°48' W 080°15'0 0.0
2017-Sep-29 18:58N 25°48' W 080°15'0 0.0
2017-Sep-29 18:28N 25°48' W 080°15'0 0.0
2017-Sep-29 16:58N 25°48' W 080°15'0 0.0
2017-Sep-29 16:28N 25°48' W 080°15'0 0.0
2017-Sep-29 15:58N 25°48' W 080°15'0 0.0
2017-Sep-29 15:28N 25°48' W 080°15'0 0.0
2017-Sep-29 14:58N 25°48' W 080°15'0 0.0
2017-Sep-29 14:28N 25°48' W 080°15'0 0.0
2017-Sep-29 13:58N 25°48' W 080°15'0 0.0
2017-Sep-29 13:28N 25°48' W 080°15'0 0.0
2017-Sep-29 12:49N 25°48' W 080°15'0 0.0
2017-Sep-29 12:28N 25°48' W 080°15'0 0.0
2017-Sep-29 11:49N 25°48' W 080°15'0 0.0
2017-Sep-29 11:28N 25°48' W 080°15'0 0.0
2017-Sep-29 10:46N 25°48' W 080°15'0 0.0
2017-Sep-29 10:22N 25°48' W 080°15'0 0.0
2017-Sep-29 09:52N 25°48' W 080°15'0 0.0
2017-Sep-29 09:19N 25°48' W 080°15'0 0.0
2017-Sep-29 08:52N 25°48' W 080°15'0 0.0
2017-Sep-29 08:22N 25°48' W 080°15'0 0.0
2017-Sep-29 07:55N 25°48' W 080°15'0 0.0
2017-Sep-29 07:25N 25°48' W 080°15'0 0.0
2017-Sep-29 06:55N 25°48' W 080°15'0 0.0
2017-Sep-29 06:25N 25°48' W 080°15'0 0.0
2017-Sep-29 05:55N 25°48' W 080°15'0 0.0
2017-Sep-29 05:28N 25°48' W 080°15'0 0.0
2017-Sep-29 04:55N 25°48' W 080°15'0 0.0
2017-Sep-29 04:28N 25°48' W 080°15'0 0.0
2017-Sep-29 03:58N 25°48' W 080°15'0 0.0
2017-Sep-29 03:25N 25°48' W 080°15'0 0.0
2017-Sep-29 02:58N 25°48' W 080°15'0 0.0
2017-Sep-29 02:28N 25°48' W 080°15'0 0.0
2017-Sep-29 01:58N 25°48' W 080°15'0 0.0
2017-Sep-29 01:28N 25°48' W 080°15'0 0.0
2017-Sep-29 00:55N 25°48' W 080°15'0 0.0
2017-Sep-29 00:28N 25°48' W 080°15'0 0.0
2017-Sep-28 23:58N 25°48' W 080°15'0 0.0
2017-Sep-28 23:28N 25°48' W 080°15'0 0.0
2017-Sep-28 22:58N 25°48' W 080°15'0 0.0
2017-Sep-28 22:13N 25°48' W 080°15'0 0.0
2017-Sep-28 21:58N 25°48' W 080°15'0 0.0
2017-Sep-28 21:19N 25°48' W 080°15'0 0.0
2017-Sep-28 20:46N 25°48' W 080°15'0 0.0
2017-Sep-28 20:22N 25°48' W 080°15'0 0.0
2017-Sep-28 19:52N 25°48' W 080°15'0 0.0
2017-Sep-28 19:19N 25°48' W 080°15'0 0.0
2017-Sep-28 18:52N 25°48' W 080°15'0 0.0
2017-Sep-28 18:22N 25°48' W 080°15'0 0.0
2017-Sep-28 17:49N 25°48' W 080°15'0 0.0
2017-Sep-28 17:25N 25°48' W 080°15'0 0.0
2017-Sep-28 16:55N 25°48' W 080°15'0 0.0
2017-Sep-28 16:25N 25°48' W 080°15'0 0.0
2017-Sep-28 15:55N 25°48' W 080°15'0 0.0
2017-Sep-28 15:25N 25°48' W 080°15'0 0.0
2017-Sep-28 14:55N 25°48' W 080°15'0 0.0
2017-Sep-28 14:28N 25°48' W 080°15'0 0.0
2017-Sep-28 13:58N 25°48' W 080°15'0 0.0
2017-Sep-28 13:28N 25°48' W 080°15'0 0.0
2017-Sep-28 12:58N 25°48' W 080°15'0 0.0
2017-Sep-28 12:28N 25°48' W 080°15'0 0.0
2017-Sep-28 11:58N 25°48' W 080°15'0 0.0
2017-Sep-28 11:28N 25°48' W 080°15'0 0.0
2017-Sep-28 10:55N 25°48' W 080°15'0 0.0
2017-Sep-28 10:28N 25°48' W 080°15'0 0.0
2017-Sep-28 09:58N 25°48' W 080°15'0 0.0
2017-Sep-28 09:28N 25°48' W 080°15'0 0.0
2017-Sep-28 08:58N 25°48' W 080°15'0 0.0
2017-Sep-28 08:28N 25°48' W 080°15'0 0.0
2017-Sep-28 07:58N 25°48' W 080°15'0 0.0
2017-Sep-28 07:28N 25°48' W 080°15'0 0.0
2017-Sep-28 06:58N 25°48' W 080°15'0 0.0
2017-Sep-28 06:19N 25°48' W 080°15'0 0.0
2017-Sep-28 05:49N 25°48' W 080°15'0 0.0
2017-Sep-28 05:19N 25°48' W 080°15'0 0.0
2017-Sep-28 04:52N 25°48' W 080°15'0 0.0
2017-Sep-28 04:22N 25°48' W 080°15'0 0.0
2017-Sep-28 03:52N 25°48' W 080°15'0 0.0
2017-Sep-28 03:22N 25°48' W 080°15'0 0.0
2017-Sep-28 02:52N 25°48' W 080°15'0 0.0
2017-Sep-28 02:22N 25°48' W 080°15'0 0.0
2017-Sep-28 01:55N 25°48' W 080°15'  

Dump ship's entire track history